sensor_id;sensor_type;location;lat;lon;timestamp;P1;durP1;ratioP1;P2;durP2;ratioP2
27746;SDS011;15138;51.012;4.692;2023-05-07T08:11:17;11.30;;;5.25;;
27746;SDS011;15138;51.012;4.692;2023-05-07T08:13:45;12.38;;;6.22;;
27746;SDS011;15138;51.012;4.692;2023-05-07T08:16:14;14.20;;;5.05;;
27746;SDS011;15138;51.012;4.692;2023-05-07T08:18:42;10.27;;;4.60;;
27746;SDS011;15138;51.012;4.692;2023-05-07T08:21:10;15.20;;;6.35;;
27746;SDS011;15138;51.012;4.692;2023-05-07T08:23:38;11.10;;;4.18;;
27746;SDS011;15138;51.012;4.692;2023-05-07T08:26:07;10.95;;;4.60;;
27746;SDS011;15138;51.012;4.692;2023-05-07T08:28:36;12.50;;;4.90;;
27746;SDS011;15138;51.012;4.692;2023-05-07T08:31:05;11.15;;;3.80;;
27746;SDS011;15138;51.012;4.692;2023-05-07T08:33:34;13.80;;;6.07;;
27746;SDS011;15138;51.012;4.692;2023-05-07T08:36:02;8.55;;;3.97;;
27746;SDS011;15138;51.012;4.692;2023-05-07T08:38:31;11.65;;;5.43;;
27746;SDS011;15138;51.012;4.692;2023-05-07T08:40:59;10.85;;;3.95;;
27746;SDS011;15138;51.012;4.692;2023-05-07T08:43:27;7.30;;;3.88;;
27746;SDS011;15138;51.012;4.692;2023-05-07T08:46:00;10.82;;;4.70;;
27746;SDS011;15138;51.012;4.692;2023-05-07T08:48:29;9.52;;;4.10;;
27746;SDS011;15138;51.012;4.692;2023-05-07T08:50:59;12.57;;;4.80;;
27746;SDS011;15138;51.012;4.692;2023-05-07T08:53:28;10.30;;;5.32;;
27746;SDS011;15138;51.012;4.692;2023-05-07T08:55:56;6.63;;;3.13;;
27746;SDS011;15138;51.012;4.692;2023-05-07T08:58:24;11.50;;;5.45;;
27746;SDS011;15138;51.012;4.692;2023-05-07T09:00:53;13.25;;;6.55;;
27746;SDS011;15138;51.012;4.692;2023-05-07T09:03:23;11.07;;;5.28;;
27746;SDS011;15138;51.012;4.692;2023-05-07T09:05:51;13.90;;;6.03;;
27746;SDS011;15138;51.012;4.692;2023-05-07T09:08:23;7.55;;;3.60;;
27746;SDS011;15138;51.012;4.692;2023-05-07T09:10:52;11.38;;;5.38;;
27746;SDS011;15138;51.012;4.692;2023-05-07T09:13:21;11.32;;;5.35;;
27746;SDS011;15138;51.012;4.692;2023-05-07T09:15:49;11.52;;;5.10;;
27746;SDS011;15138;51.012;4.692;2023-05-07T09:18:17;11.70;;;5.28;;
27746;SDS011;15138;51.012;4.692;2023-05-07T09:20:47;11.80;;;4.40;;
27746;SDS011;15138;51.012;4.692;2023-05-07T09:23:15;8.98;;;4.28;;
27746;SDS011;15138;51.012;4.692;2023-05-07T09:25:47;13.85;;;5.72;;
27746;SDS011;15138;51.012;4.692;2023-05-07T09:28:15;14.25;;;5.47;;
27746;SDS011;15138;51.012;4.692;2023-05-07T09:30:44;8.55;;;3.90;;
27746;SDS011;15138;51.012;4.692;2023-05-07T09:33:12;14.27;;;4.82;;
27746;SDS011;15138;51.012;4.692;2023-05-07T09:35:40;13.70;;;5.20;;
27746;SDS011;15138;51.012;4.692;2023-05-07T09:38:10;12.13;;;3.88;;
27746;SDS011;15138;51.012;4.692;2023-05-07T09:40:38;11.48;;;4.90;;
27746;SDS011;15138;51.012;4.692;2023-05-07T09:43:09;10.57;;;4.15;;
27746;SDS011;15138;51.012;4.692;2023-05-07T09:45:38;10.43;;;4.32;;
27746;SDS011;15138;51.012;4.692;2023-05-07T09:48:06;9.50;;;3.85;;
27746;SDS011;15138;51.012;4.692;2023-05-07T09:50:36;12.05;;;5.00;;
27746;SDS011;15138;51.012;4.692;2023-05-07T09:53:07;13.82;;;5.05;;
27746;SDS011;15138;51.012;4.692;2023-05-07T09:55:39;10.52;;;4.18;;
27746;SDS011;15138;51.012;4.692;2023-05-07T09:58:07;11.00;;;4.28;;
27746;SDS011;15138;51.012;4.692;2023-05-07T10:00:40;8.63;;;3.78;;
27746;SDS011;15138;51.012;4.692;2023-05-07T10:03:09;7.18;;;3.00;;
27746;SDS011;15138;51.012;4.692;2023-05-07T10:05:39;9.05;;;4.35;;
27746;SDS011;15138;51.012;4.692;2023-05-07T10:08:08;10.57;;;4.65;;
27746;SDS011;15138;51.012;4.692;2023-05-07T10:10:39;12.93;;;5.28;;
27746;SDS011;15138;51.012;4.692;2023-05-07T10:13:08;13.52;;;4.88;;
27746;SDS011;15138;51.012;4.692;2023-05-07T10:15:37;12.88;;;5.00;;
27746;SDS011;15138;51.012;4.692;2023-05-07T10:18:06;11.10;;;4.88;;
27746;SDS011;15138;51.012;4.692;2023-05-07T10:20:34;12.07;;;5.35;;
27746;SDS011;15138;51.012;4.692;2023-05-07T10:23:04;10.52;;;5.03;;
27746;SDS011;15138;51.012;4.692;2023-05-07T10:25:33;9.15;;;4.47;;
27746;SDS011;15138;51.012;4.692;2023-05-07T10:28:04;11.98;;;5.28;;
27746;SDS011;15138;51.012;4.692;2023-05-07T10:30:38;10.02;;;4.25;;
27746;SDS011;15138;51.012;4.692;2023-05-07T10:33:21;12.95;;;4.70;;
27746;SDS011;15138;51.012;4.692;2023-05-07T10:35:55;9.32;;;4.38;;
27746;SDS011;15138;51.012;4.692;2023-05-07T10:38:26;13.15;;;4.43;;
27746;SDS011;15138;51.012;4.692;2023-05-07T10:40:55;8.00;;;3.40;;
27746;SDS011;15138;51.012;4.692;2023-05-07T10:43:24;9.55;;;3.85;;
27746;SDS011;15138;51.012;4.692;2023-05-07T10:46:14;8.25;;;2.72;;
27746;SDS011;15138;51.012;4.692;2023-05-07T10:51:37;11.23;;;4.47;;
27746;SDS011;15138;51.012;4.692;2023-05-07T10:54:19;8.05;;;2.92;;
27746;SDS011;15138;51.012;4.692;2023-05-07T10:56:53;7.30;;;3.17;;
27746;SDS011;15138;51.012;4.692;2023-05-07T10:59:35;13.88;;;3.55;;
27746;SDS011;15138;51.012;4.692;2023-05-07T11:02:10;9.48;;;4.00;;
27746;SDS011;15138;51.012;4.692;2023-05-07T11:04:40;8.88;;;3.40;;
27746;SDS011;15138;51.012;4.692;2023-05-07T11:07:14;6.28;;;3.05;;
27746;SDS011;15138;51.012;4.692;2023-05-07T11:10:05;11.40;;;3.25;;
27746;SDS011;15138;51.012;4.692;2023-05-07T11:12:53;9.02;;;3.25;;
27746;SDS011;15138;51.012;4.692;2023-05-07T11:15:36;9.35;;;3.55;;
27746;SDS011;15138;51.012;4.692;2023-05-07T11:18:12;9.15;;;3.15;;
27746;SDS011;15138;51.012;4.692;2023-05-07T11:20:54;9.30;;;3.45;;
27746;SDS011;15138;51.012;4.692;2023-05-07T11:26:25;7.55;;;2.72;;
27746;SDS011;15138;51.012;4.692;2023-05-07T11:28:54;7.18;;;2.75;;
27746;SDS011;15138;51.012;4.692;2023-05-07T11:31:25;10.30;;;3.22;;
27746;SDS011;15138;51.012;4.692;2023-05-07T11:33:56;9.23;;;2.95;;
27746;SDS011;15138;51.012;4.692;2023-05-07T11:36:25;12.25;;;3.58;;
27746;SDS011;15138;51.012;4.692;2023-05-07T11:38:59;8.88;;;3.10;;
27746;SDS011;15138;51.012;4.692;2023-05-07T11:41:33;9.38;;;3.40;;
27746;SDS011;15138;51.012;4.692;2023-05-07T11:44:02;10.15;;;3.25;;
27746;SDS011;15138;51.012;4.692;2023-05-07T11:46:32;8.65;;;3.00;;
27746;SDS011;15138;51.012;4.692;2023-05-07T11:49:01;9.95;;;3.17;;
27746;SDS011;15138;51.012;4.692;2023-05-07T11:51:29;8.10;;;2.80;;
27746;SDS011;15138;51.012;4.692;2023-05-07T11:53:58;8.38;;;2.80;;
27746;SDS011;15138;51.012;4.692;2023-05-07T11:56:26;8.10;;;2.90;;
27746;SDS011;15138;51.012;4.692;2023-05-07T11:58:54;7.05;;;2.63;;
27746;SDS011;15138;51.012;4.692;2023-05-07T12:01:22;5.22;;;2.53;;
27746;SDS011;15138;51.012;4.692;2023-05-07T12:03:52;7.85;;;2.45;;
27746;SDS011;15138;51.012;4.692;2023-05-07T12:06:20;7.97;;;3.05;;
27746;SDS011;15138;51.012;4.692;2023-05-07T12:08:48;7.63;;;2.92;;
27746;SDS011;15138;51.012;4.692;2023-05-07T12:11:21;7.13;;;2.80;;
27746;SDS011;15138;51.012;4.692;2023-05-07T12:13:51;6.70;;;2.50;;
27746;SDS011;15138;51.012;4.692;2023-05-07T12:16:24;9.88;;;3.20;;
27746;SDS011;15138;51.012;4.692;2023-05-07T12:18:54;7.75;;;2.90;;
27746;SDS011;15138;51.012;4.692;2023-05-07T12:21:25;11.65;;;2.92;;
27746;SDS011;15138;51.012;4.692;2023-05-07T12:23:53;6.95;;;2.30;;
27746;SDS011;15138;51.012;4.692;2023-05-07T12:26:21;8.63;;;2.85;;
27746;SDS011;15138;51.012;4.692;2023-05-07T12:28:50;4.88;;;2.58;;
27746;SDS011;15138;51.012;4.692;2023-05-07T12:31:19;9.82;;;3.22;;
27746;SDS011;15138;51.012;4.692;2023-05-07T12:33:47;8.77;;;3.28;;
27746;SDS011;15138;51.012;4.692;2023-05-07T12:36:16;9.77;;;3.58;;
27746;SDS011;15138;51.012;4.692;2023-05-07T12:38:44;7.13;;;3.10;;
27746;SDS011;15138;51.012;4.692;2023-05-07T12:41:16;11.65;;;3.70;;
27746;SDS011;15138;51.012;4.692;2023-05-07T12:43:44;11.75;;;3.70;;
27746;SDS011;15138;51.012;4.692;2023-05-07T12:46:13;10.32;;;3.70;;
27746;SDS011;15138;51.012;4.692;2023-05-07T12:48:43;9.45;;;3.72;;
27746;SDS011;15138;51.012;4.692;2023-05-07T12:51:12;12.65;;;3.75;;
27746;SDS011;15138;51.012;4.692;2023-05-07T12:53:42;10.15;;;3.00;;
27746;SDS011;15138;51.012;4.692;2023-05-07T12:56:11;9.18;;;2.72;;
27746;SDS011;15138;51.012;4.692;2023-05-07T12:58:39;5.63;;;2.38;;
27746;SDS011;15138;51.012;4.692;2023-05-07T13:01:07;6.28;;;2.85;;
27746;SDS011;15138;51.012;4.692;2023-05-07T13:03:38;9.18;;;2.88;;
27746;SDS011;15138;51.012;4.692;2023-05-07T13:06:07;6.00;;;2.63;;
27746;SDS011;15138;51.012;4.692;2023-05-07T13:08:39;8.38;;;2.40;;
27746;SDS011;15138;51.012;4.692;2023-05-07T13:11:10;9.02;;;2.78;;
27746;SDS011;15138;51.012;4.692;2023-05-07T13:13:40;5.90;;;2.20;;
27746;SDS011;15138;51.012;4.692;2023-05-07T13:16:09;8.52;;;2.83;;
27746;SDS011;15138;51.012;4.692;2023-05-07T13:18:39;4.78;;;2.50;;
27746;SDS011;15138;51.012;4.692;2023-05-07T13:21:10;9.40;;;2.60;;
27746;SDS011;15138;51.012;4.692;2023-05-07T13:23:39;8.23;;;2.25;;
27746;SDS011;15138;51.012;4.692;2023-05-07T13:26:07;6.93;;;2.58;;
27746;SDS011;15138;51.012;4.692;2023-05-07T13:28:53;6.35;;;2.70;;
27746;SDS011;15138;51.012;4.692;2023-05-07T13:31:21;8.40;;;2.47;;
27746;SDS011;15138;51.012;4.692;2023-05-07T13:33:49;8.05;;;2.30;;
27746;SDS011;15138;51.012;4.692;2023-05-07T13:36:18;6.22;;;2.10;;
27746;SDS011;15138;51.012;4.692;2023-05-07T13:38:47;6.05;;;2.10;;
27746;SDS011;15138;51.012;4.692;2023-05-07T13:41:15;9.57;;;2.70;;
27746;SDS011;15138;51.012;4.692;2023-05-07T13:43:43;8.68;;;2.70;;
27746;SDS011;15138;51.012;4.692;2023-05-07T13:46:13;5.28;;;2.30;;
27746;SDS011;15138;51.012;4.692;2023-05-07T13:48:41;6.13;;;2.40;;
27746;SDS011;15138;51.012;4.692;2023-05-07T13:51:09;6.65;;;2.22;;
27746;SDS011;15138;51.012;4.692;2023-05-07T13:53:37;7.30;;;2.08;;
27746;SDS011;15138;51.012;4.692;2023-05-07T13:56:06;8.00;;;2.22;;
27746;SDS011;15138;51.012;4.692;2023-05-07T13:58:34;6.65;;;2.13;;
27746;SDS011;15138;51.012;4.692;2023-05-07T14:01:15;5.15;;;2.60;;
27746;SDS011;15138;51.012;4.692;2023-05-07T14:03:43;8.30;;;2.35;;
27746;SDS011;15138;51.012;4.692;2023-05-07T14:06:11;8.45;;;2.53;;
27746;SDS011;15138;51.012;4.692;2023-05-07T14:08:39;6.18;;;2.05;;
27746;SDS011;15138;51.012;4.692;2023-05-07T14:11:08;6.78;;;2.17;;
27746;SDS011;15138;51.012;4.692;2023-05-07T14:13:36;10.68;;;2.70;;
27746;SDS011;15138;51.012;4.692;2023-05-07T14:16:04;3.78;;;2.05;;
27746;SDS011;15138;51.012;4.692;2023-05-07T14:18:34;7.72;;;2.47;;
27746;SDS011;15138;51.012;4.692;2023-05-07T14:21:04;6.55;;;2.08;;
27746;SDS011;15138;51.012;4.692;2023-05-07T14:23:33;5.20;;;1.90;;
27746;SDS011;15138;51.012;4.692;2023-05-07T14:26:02;4.50;;;1.85;;
27746;SDS011;15138;51.012;4.692;2023-05-07T14:28:30;5.65;;;2.20;;
27746;SDS011;15138;51.012;4.692;2023-05-07T14:30:59;5.15;;;1.90;;
27746;SDS011;15138;51.012;4.692;2023-05-07T14:33:27;6.20;;;2.63;;
27746;SDS011;15138;51.012;4.692;2023-05-07T14:35:56;5.88;;;2.10;;
27746;SDS011;15138;51.012;4.692;2023-05-07T14:38:25;5.70;;;2.35;;
27746;SDS011;15138;51.012;4.692;2023-05-07T14:40:53;6.55;;;2.30;;
27746;SDS011;15138;51.012;4.692;2023-05-07T14:43:22;5.82;;;2.13;;
27746;SDS011;15138;51.012;4.692;2023-05-07T14:45:50;6.28;;;2.10;;
27746;SDS011;15138;51.012;4.692;2023-05-07T14:48:19;6.38;;;2.20;;
27746;SDS011;15138;51.012;4.692;2023-05-07T14:50:47;7.18;;;2.28;;
27746;SDS011;15138;51.012;4.692;2023-05-07T14:53:17;4.03;;;1.75;;
27746;SDS011;15138;51.012;4.692;2023-05-07T14:55:46;7.03;;;2.50;;
27746;SDS011;15138;51.012;4.692;2023-05-07T14:58:15;6.75;;;2.63;;
27746;SDS011;15138;51.012;4.692;2023-05-07T15:00:43;6.88;;;2.65;;
27746;SDS011;15138;51.012;4.692;2023-05-07T15:03:11;3.97;;;2.00;;
27746;SDS011;15138;51.012;4.692;2023-05-07T15:05:40;3.92;;;1.83;;
27746;SDS011;15138;51.012;4.692;2023-05-07T15:08:08;5.60;;;2.22;;
27746;SDS011;15138;51.012;4.692;2023-05-07T15:10:38;5.38;;;2.17;;
27746;SDS011;15138;51.012;4.692;2023-05-07T15:13:08;5.75;;;2.45;;
27746;SDS011;15138;51.012;4.692;2023-05-07T15:15:41;4.93;;;1.90;;
27746;SDS011;15138;51.012;4.692;2023-05-07T15:18:10;5.47;;;1.98;;
27746;SDS011;15138;51.012;4.692;2023-05-07T15:20:38;6.68;;;2.20;;
27746;SDS011;15138;51.012;4.692;2023-05-07T15:23:07;7.13;;;2.08;;
27746;SDS011;15138;51.012;4.692;2023-05-07T15:25:39;6.35;;;2.30;;
27746;SDS011;15138;51.012;4.692;2023-05-07T15:28:08;6.22;;;2.03;;
27746;SDS011;15138;51.012;4.692;2023-05-07T15:30:36;5.43;;;2.33;;
27746;SDS011;15138;51.012;4.692;2023-05-07T15:33:05;4.53;;;1.80;;
27746;SDS011;15138;51.012;4.692;2023-05-07T15:35:33;7.70;;;2.35;;
27746;SDS011;15138;51.012;4.692;2023-05-07T15:38:01;9.13;;;2.20;;
27746;SDS011;15138;51.012;4.692;2023-05-07T15:40:30;6.53;;;2.10;;
27746;SDS011;15138;51.012;4.692;2023-05-07T15:43:00;7.65;;;2.40;;
27746;SDS011;15138;51.012;4.692;2023-05-07T15:45:28;7.03;;;2.30;;
27746;SDS011;15138;51.012;4.692;2023-05-07T15:47:57;9.55;;;3.20;;
27746;SDS011;15138;51.012;4.692;2023-05-07T15:50:25;5.45;;;2.30;;
27746;SDS011;15138;51.012;4.692;2023-05-07T15:52:54;5.50;;;2.17;;
27746;SDS011;15138;51.012;4.692;2023-05-07T15:55:23;6.03;;;2.30;;
27746;SDS011;15138;51.012;4.692;2023-05-07T15:57:51;7.00;;;2.50;;
27746;SDS011;15138;51.012;4.692;2023-05-07T16:00:21;5.70;;;2.20;;
27746;SDS011;15138;51.012;4.692;2023-05-07T16:02:50;5.97;;;2.10;;
27746;SDS011;15138;51.012;4.692;2023-05-07T16:05:18;4.47;;;2.40;;
27746;SDS011;15138;51.012;4.692;2023-05-07T16:07:46;6.55;;;1.95;;
27746;SDS011;15138;51.012;4.692;2023-05-07T16:10:15;5.28;;;2.40;;
27746;SDS011;15138;51.012;4.692;2023-05-07T16:12:43;6.10;;;2.65;;
27746;SDS011;15138;51.012;4.692;2023-05-07T16:15:12;7.10;;;2.85;;
27746;SDS011;15138;51.012;4.692;2023-05-07T16:17:41;7.38;;;2.45;;
27746;SDS011;15138;51.012;4.692;2023-05-07T16:20:12;7.47;;;2.50;;
27746;SDS011;15138;51.012;4.692;2023-05-07T16:22:45;5.60;;;2.20;;
27746;SDS011;15138;51.012;4.692;2023-05-07T16:25:13;6.82;;;2.42;;
27746;SDS011;15138;51.012;4.692;2023-05-07T16:27:42;5.05;;;1.95;;
27746;SDS011;15138;51.012;4.692;2023-05-07T16:30:10;5.30;;;2.50;;
27746;SDS011;15138;51.012;4.692;2023-05-07T16:32:38;5.80;;;2.22;;
27746;SDS011;15138;51.012;4.692;2023-05-07T16:35:08;7.53;;;2.00;;
27746;SDS011;15138;51.012;4.692;2023-05-07T16:37:38;5.28;;;2.50;;
27746;SDS011;15138;51.012;4.692;2023-05-07T16:40:07;8.52;;;2.63;;
27746;SDS011;15138;51.012;4.692;2023-05-07T16:42:36;6.38;;;2.20;;
27746;SDS011;15138;51.012;4.692;2023-05-07T16:45:05;7.18;;;2.30;;
27746;SDS011;15138;51.012;4.692;2023-05-07T16:47:34;8.10;;;3.08;;
27746;SDS011;15138;51.012;4.692;2023-05-07T16:50:02;5.15;;;2.30;;
27746;SDS011;15138;51.012;4.692;2023-05-07T16:52:33;5.97;;;2.40;;
27746;SDS011;15138;51.012;4.692;2023-05-07T16:55:01;5.43;;;2.10;;
27746;SDS011;15138;51.012;4.692;2023-05-07T16:57:29;4.45;;;2.33;;
27746;SDS011;15138;51.012;4.692;2023-05-07T16:59:57;4.03;;;1.98;;
27746;SDS011;15138;51.012;4.692;2023-05-07T17:02:26;6.18;;;2.20;;
27746;SDS011;15138;51.012;4.692;2023-05-07T17:04:54;8.30;;;2.25;;
27746;SDS011;15138;51.012;4.692;2023-05-07T17:07:24;7.10;;;2.22;;
27746;SDS011;15138;51.012;4.692;2023-05-07T17:09:54;5.60;;;2.83;;
27746;SDS011;15138;51.012;4.692;2023-05-07T17:12:22;5.18;;;2.10;;
27746;SDS011;15138;51.012;4.692;2023-05-07T17:14:50;6.22;;;2.53;;
27746;SDS011;15138;51.012;4.692;2023-05-07T17:17:18;4.53;;;2.65;;
27746;SDS011;15138;51.012;4.692;2023-05-07T17:19:47;5.80;;;2.38;;
27746;SDS011;15138;51.012;4.692;2023-05-07T17:22:15;5.05;;;2.35;;
27746;SDS011;15138;51.012;4.692;2023-05-07T17:24:43;6.90;;;2.38;;
27746;SDS011;15138;51.012;4.692;2023-05-07T17:27:13;6.75;;;2.40;;
27746;SDS011;15138;51.012;4.692;2023-05-07T17:29:41;6.03;;;2.50;;
27746;SDS011;15138;51.012;4.692;2023-05-07T17:32:09;7.80;;;2.50;;
27746;SDS011;15138;51.012;4.692;2023-05-07T17:34:37;5.43;;;2.53;;
27746;SDS011;15138;51.012;4.692;2023-05-07T17:37:05;5.70;;;2.55;;
27746;SDS011;15138;51.012;4.692;2023-05-07T17:39:33;5.88;;;3.03;;
27746;SDS011;15138;51.012;4.692;2023-05-07T17:42:02;7.70;;;2.80;;
27746;SDS011;15138;51.012;4.692;2023-05-07T17:44:31;6.57;;;3.10;;
27746;SDS011;15138;51.012;4.692;2023-05-07T17:47:01;7.15;;;3.13;;
27746;SDS011;15138;51.012;4.692;2023-05-07T17:49:29;6.95;;;2.70;;
27746;SDS011;15138;51.012;4.692;2023-05-07T17:51:57;5.38;;;2.90;;
27746;SDS011;15138;51.012;4.692;2023-05-07T17:54:26;9.07;;;2.80;;
27746;SDS011;15138;51.012;4.692;2023-05-07T17:56:55;6.70;;;2.90;;
27746;SDS011;15138;51.012;4.692;2023-05-07T17:59:23;6.72;;;3.15;;
27746;SDS011;15138;51.012;4.692;2023-05-07T18:01:53;7.05;;;2.63;;
27746;SDS011;15138;51.012;4.692;2023-05-07T18:04:22;5.93;;;2.50;;
27746;SDS011;15138;51.012;4.692;2023-05-07T18:06:51;6.93;;;2.40;;
27746;SDS011;15138;51.012;4.692;2023-05-07T18:09:20;7.78;;;2.30;;
27746;SDS011;15138;51.012;4.692;2023-05-07T18:11:48;6.45;;;2.85;;
27746;SDS011;15138;51.012;4.692;2023-05-07T18:14:16;6.40;;;2.40;;
27746;SDS011;15138;51.012;4.692;2023-05-07T18:16:49;7.68;;;2.85;;
27746;SDS011;15138;51.012;4.692;2023-05-07T18:19:19;4.05;;;2.60;;
27746;SDS011;15138;51.012;4.692;2023-05-07T18:21:47;5.32;;;1.90;;
27746;SDS011;15138;51.012;4.692;2023-05-07T18:24:16;4.35;;;2.33;;
27746;SDS011;15138;51.012;4.692;2023-05-07T18:26:45;8.63;;;2.30;;
27746;SDS011;15138;51.012;4.692;2023-05-07T18:29:14;6.47;;;2.30;;
27746;SDS011;15138;51.012;4.692;2023-05-07T18:31:42;7.70;;;2.60;;
27746;SDS011;15138;51.012;4.692;2023-05-07T18:34:11;5.47;;;2.20;;
27746;SDS011;15138;51.012;4.692;2023-05-07T18:36:41;7.43;;;2.80;;
27746;SDS011;15138;51.012;4.692;2023-05-07T18:39:09;5.75;;;2.10;;
27746;SDS011;15138;51.012;4.692;2023-05-07T18:41:37;6.35;;;2.60;;
27746;SDS011;15138;51.012;4.692;2023-05-07T18:44:05;4.82;;;2.42;;
27746;SDS011;15138;51.012;4.692;2023-05-07T18:46:34;5.55;;;2.35;;
27746;SDS011;15138;51.012;4.692;2023-05-07T18:49:02;8.98;;;4.15;;
27746;SDS011;15138;51.012;4.692;2023-05-07T18:51:31;6.15;;;2.70;;
27746;SDS011;15138;51.012;4.692;2023-05-07T18:54:00;6.25;;;2.30;;
27746;SDS011;15138;51.012;4.692;2023-05-07T18:56:29;4.68;;;2.30;;
27746;SDS011;15138;51.012;4.692;2023-05-07T18:58:57;7.30;;;3.17;;
27746;SDS011;15138;51.012;4.692;2023-05-07T19:01:25;6.70;;;3.08;;
27746;SDS011;15138;51.012;4.692;2023-05-07T19:03:53;9.30;;;2.80;;
27746;SDS011;15138;51.012;4.692;2023-05-07T19:06:22;7.65;;;2.40;;
27746;SDS011;15138;51.012;4.692;2023-05-07T19:08:51;6.53;;;2.22;;
27746;SDS011;15138;51.012;4.692;2023-05-07T19:11:21;6.13;;;2.10;;
27746;SDS011;15138;51.012;4.692;2023-05-07T19:13:50;6.80;;;2.85;;
27746;SDS011;15138;51.012;4.692;2023-05-07T19:16:18;25.27;;;12.07;;
27746;SDS011;15138;51.012;4.692;2023-05-07T19:18:46;29.75;;;16.17;;
27746;SDS011;15138;51.012;4.692;2023-05-07T19:21:15;14.60;;;7.07;;
27746;SDS011;15138;51.012;4.692;2023-05-07T19:23:43;10.98;;;6.25;;
27746;SDS011;15138;51.012;4.692;2023-05-07T19:26:11;7.75;;;4.00;;
27746;SDS011;15138;51.012;4.692;2023-05-07T19:28:41;9.27;;;5.43;;
27746;SDS011;15138;51.012;4.692;2023-05-07T19:31:17;9.45;;;4.72;;
27746;SDS011;15138;51.012;4.692;2023-05-07T19:33:46;7.75;;;4.20;;
27746;SDS011;15138;51.012;4.692;2023-05-07T19:36:14;4.32;;;3.25;;
27746;SDS011;15138;51.012;4.692;2023-05-07T19:38:43;5.57;;;3.53;;
27746;SDS011;15138;51.012;4.692;2023-05-07T19:41:12;5.00;;;3.40;;
27746;SDS011;15138;51.012;4.692;2023-05-07T19:43:41;4.25;;;2.80;;
27746;SDS011;15138;51.012;4.692;2023-05-07T19:46:10;4.78;;;3.42;;
27746;SDS011;15138;51.012;4.692;2023-05-07T19:48:38;7.55;;;4.05;;
27746;SDS011;15138;51.012;4.692;2023-05-07T19:51:06;5.97;;;3.45;;
27746;SDS011;15138;51.012;4.692;2023-05-07T19:53:34;8.27;;;3.90;;
27746;SDS011;15138;51.012;4.692;2023-05-07T19:56:04;4.78;;;3.42;;
27746;SDS011;15138;51.012;4.692;2023-05-07T19:58:33;6.30;;;4.57;;
27746;SDS011;15138;51.012;4.692;2023-05-07T20:01:03;10.52;;;5.80;;
27746;SDS011;15138;51.012;4.692;2023-05-07T20:03:32;7.25;;;5.43;;
27746;SDS011;15138;51.012;4.692;2023-05-07T20:06:01;8.40;;;5.55;;
27746;SDS011;15138;51.012;4.692;2023-05-07T20:08:29;5.32;;;3.38;;
27746;SDS011;15138;51.012;4.692;2023-05-07T20:10:58;8.45;;;4.90;;
27746;SDS011;15138;51.012;4.692;2023-05-07T20:13:26;8.13;;;4.57;;
27746;SDS011;15138;51.012;4.692;2023-05-07T20:15:57;6.00;;;4.85;;
27746;SDS011;15138;51.012;4.692;2023-05-07T20:18:28;6.75;;;4.35;;
27746;SDS011;15138;51.012;4.692;2023-05-07T20:20:56;6.97;;;4.43;;
27746;SDS011;15138;51.012;4.692;2023-05-07T20:23:24;6.68;;;3.88;;
27746;SDS011;15138;51.012;4.692;2023-05-07T20:25:52;7.55;;;4.90;;
27746;SDS011;15138;51.012;4.692;2023-05-07T20:28:21;6.32;;;4.20;;
27746;SDS011;15138;51.012;4.692;2023-05-07T20:30:49;7.68;;;4.97;;
27746;SDS011;15138;51.012;4.692;2023-05-07T20:33:17;6.28;;;4.57;;
27746;SDS011;15138;51.012;4.692;2023-05-07T20:35:47;9.73;;;6.57;;
27746;SDS011;15138;51.012;4.692;2023-05-07T20:38:15;5.18;;;3.50;;
27746;SDS011;15138;51.012;4.692;2023-05-07T20:40:43;6.28;;;4.15;;
27746;SDS011;15138;51.012;4.692;2023-05-07T20:43:12;6.70;;;5.03;;
27746;SDS011;15138;51.012;4.692;2023-05-07T20:45:40;7.57;;;4.95;;
27746;SDS011;15138;51.012;4.692;2023-05-07T20:48:08;9.70;;;6.15;;
27746;SDS011;15138;51.012;4.692;2023-05-07T20:50:37;11.15;;;6.68;;
27746;SDS011;15138;51.012;4.692;2023-05-07T20:53:07;7.38;;;4.80;;
27746;SDS011;15138;51.012;4.692;2023-05-07T20:55:35;7.03;;;4.90;;
27746;SDS011;15138;51.012;4.692;2023-05-07T20:58:03;4.90;;;3.90;;
27746;SDS011;15138;51.012;4.692;2023-05-07T21:00:31;8.43;;;5.82;;
27746;SDS011;15138;51.012;4.692;2023-05-07T21:02:59;7.38;;;4.95;;
27746;SDS011;15138;51.012;4.692;2023-05-07T21:05:28;5.82;;;4.00;;
27746;SDS011;15138;51.012;4.692;2023-05-07T21:07:57;6.55;;;4.63;;
27746;SDS011;15138;51.012;4.692;2023-05-07T21:10:27;8.57;;;5.43;;
27746;SDS011;15138;51.012;4.692;2023-05-07T21:12:55;9.02;;;6.85;;
27746;SDS011;15138;51.012;4.692;2023-05-07T21:15:23;9.93;;;5.85;;
27746;SDS011;15138;51.012;4.692;2023-05-07T21:17:52;5.00;;;3.70;;
27746;SDS011;15138;51.012;4.692;2023-05-07T21:20:20;6.03;;;4.35;;
27746;SDS011;15138;51.012;4.692;2023-05-07T21:22:48;4.57;;;3.72;;
27746;SDS011;15138;51.012;4.692;2023-05-07T21:25:16;7.03;;;3.80;;
27746;SDS011;15138;51.012;4.692;2023-05-07T21:27:46;7.32;;;5.03;;
27746;SDS011;15138;51.012;4.692;2023-05-07T21:30:14;8.07;;;5.30;;
27746;SDS011;15138;51.012;4.692;2023-05-07T21:32:42;8.63;;;6.13;;
27746;SDS011;15138;51.012;4.692;2023-05-07T21:35:10;7.18;;;5.93;;
27746;SDS011;15138;51.012;4.692;2023-05-07T21:37:39;11.68;;;8.93;;
27746;SDS011;15138;51.012;4.692;2023-05-07T21:40:07;8.65;;;6.55;;
27746;SDS011;15138;51.012;4.692;2023-05-07T21:42:36;10.15;;;7.45;;
27746;SDS011;15138;51.012;4.692;2023-05-07T21:45:06;12.25;;;8.20;;
27746;SDS011;15138;51.012;4.692;2023-05-07T21:47:35;9.55;;;6.32;;
27746;SDS011;15138;51.012;4.692;2023-05-07T21:50:03;12.82;;;8.10;;
27746;SDS011;15138;51.012;4.692;2023-05-07T21:52:32;8.15;;;5.78;;
27746;SDS011;15138;51.012;4.692;2023-05-07T21:55:01;12.85;;;7.60;;
27746;SDS011;15138;51.012;4.692;2023-05-07T21:57:30;9.88;;;7.50;;
27746;SDS011;15138;51.012;4.692;2023-05-07T21:59:58;10.20;;;6.35;;
27746;SDS011;15138;51.012;4.692;2023-05-07T22:02:28;10.02;;;6.60;;
27746;SDS011;15138;51.012;4.692;2023-05-07T22:04:57;8.80;;;4.88;;
27746;SDS011;15138;51.012;4.692;2023-05-07T22:07:25;7.30;;;5.00;;
27746;SDS011;15138;51.012;4.692;2023-05-07T22:09:53;7.40;;;5.18;;
27746;SDS011;15138;51.012;4.692;2023-05-07T22:12:22;8.40;;;5.57;;
27746;SDS011;15138;51.012;4.692;2023-05-07T22:14:50;9.43;;;6.47;;
27746;SDS011;15138;51.012;4.692;2023-05-07T22:17:18;7.38;;;4.82;;
27746;SDS011;15138;51.012;4.692;2023-05-07T22:19:48;13.43;;;9.95;;
27746;SDS011;15138;51.012;4.692;2023-05-07T22:22:16;13.65;;;9.50;;
27746;SDS011;15138;51.012;4.692;2023-05-07T22:24:44;10.35;;;7.78;;
27746;SDS011;15138;51.012;4.692;2023-05-07T22:27:12;9.75;;;6.65;;
27746;SDS011;15138;51.012;4.692;2023-05-07T22:29:40;7.90;;;6.03;;
27746;SDS011;15138;51.012;4.692;2023-05-07T22:32:09;6.07;;;4.53;;
27746;SDS011;15138;51.012;4.692;2023-05-07T22:34:38;11.52;;;7.60;;
27746;SDS011;15138;51.012;4.692;2023-05-07T22:37:07;11.70;;;8.27;;
27746;SDS011;15138;51.012;4.692;2023-05-07T22:39:35;10.63;;;6.53;;
27746;SDS011;15138;51.012;4.692;2023-05-07T22:42:04;10.90;;;8.38;;
27746;SDS011;15138;51.012;4.692;2023-05-07T22:44:32;8.85;;;6.40;;
27746;SDS011;15138;51.012;4.692;2023-05-07T22:47:00;11.65;;;6.95;;
27746;SDS011;15138;51.012;4.692;2023-05-07T22:49:29;11.48;;;9.10;;
27746;SDS011;15138;51.012;4.692;2023-05-07T22:51:57;12.27;;;9.80;;
27746;SDS011;15138;51.012;4.692;2023-05-07T22:54:26;16.98;;;9.38;;
27746;SDS011;15138;51.012;4.692;2023-05-07T22:56:54;13.48;;;8.98;;
27746;SDS011;15138;51.012;4.692;2023-05-07T22:59:23;8.50;;;5.18;;
27746;SDS011;15138;51.012;4.692;2023-05-07T23:01:51;13.00;;;8.55;;
27746;SDS011;15138;51.012;4.692;2023-05-07T23:04:20;13.02;;;9.13;;
27746;SDS011;15138;51.012;4.692;2023-05-07T23:06:48;10.02;;;6.55;;
27746;SDS011;15138;51.012;4.692;2023-05-07T23:09:16;9.60;;;6.05;;
27746;SDS011;15138;51.012;4.692;2023-05-07T23:11:46;9.05;;;5.88;;
27746;SDS011;15138;51.012;4.692;2023-05-07T23:14:14;9.90;;;6.93;;